createdAt,value
2022-09-12T00:04:30.635Z,11.60
2022-09-12T00:09:15.799Z,11.50
2022-09-12T00:14:01.118Z,11.70
2022-09-12T00:18:47.073Z,11.60
2022-09-12T00:23:32.227Z,11.40
2022-09-12T00:28:17.912Z,11.30
2022-09-12T00:33:01.350Z,11.30
2022-09-12T00:37:44.761Z,11.20
2022-09-12T00:42:29.596Z,11.10
2022-09-12T00:47:17.882Z,11.20
2022-09-12T00:52:07.524Z,11.20
2022-09-12T00:56:53.343Z,11.10
2022-09-12T01:01:39.702Z,10.90
2022-09-12T01:06:27.295Z,11.00
2022-09-12T01:11:13.073Z,11.00
2022-09-12T01:15:57.119Z,10.80
2022-09-12T01:20:56.050Z,10.80
2022-09-12T01:25:52.875Z,10.60
2022-09-12T01:30:51.724Z,10.60
2022-09-12T01:35:43.956Z,10.50
2022-09-12T01:40:32.843Z,10.40
2022-09-12T01:45:21.866Z,10.40
2022-09-12T01:50:09.713Z,10.40
2022-09-12T01:54:58.761Z,10.20
2022-09-12T01:59:46.802Z,10.30
2022-09-12T02:04:34.400Z,10.20
2022-09-12T02:09:22.294Z,10.40
2022-09-12T02:14:11.662Z,10.60
2022-09-12T02:18:59.007Z,10.50
2022-09-12T02:23:49.078Z,10.30
2022-09-12T02:28:37.909Z,10.20
2022-09-12T02:33:28.124Z,10.00
2022-09-12T02:38:16.092Z,10.20
2022-09-12T02:42:59.818Z,10.20
2022-09-12T02:47:48.930Z,10.10
2022-09-12T02:52:33.872Z,10.40
2022-09-12T02:57:22.637Z,10.50
2022-09-12T03:02:16.997Z,10.40
2022-09-12T03:07:14.053Z,10.30
2022-09-12T03:12:09.962Z,10.10
2022-09-12T03:17:05.438Z,9.90
2022-09-12T03:21:58.709Z,9.90
2022-09-12T03:26:48.533Z,9.80
2022-09-12T03:31:31.945Z,9.80
2022-09-12T03:36:18.429Z,9.80
2022-09-12T03:41:02.737Z,9.70
2022-09-12T03:45:51.468Z,9.70
2022-09-12T03:50:35.175Z,9.60
2022-09-12T03:55:18.771Z,9.50
2022-09-12T04:00:02.931Z,9.50
2022-09-12T04:04:48.054Z,9.70
2022-09-12T04:09:31.468Z,9.70
2022-09-12T04:14:14.841Z,9.60
2022-09-12T04:18:58.200Z,9.60
2022-09-12T04:23:43.417Z,9.60
2022-09-12T04:28:29.119Z,9.50
2022-09-12T04:33:12.478Z,9.40
2022-09-12T04:37:55.807Z,9.40
2022-09-12T04:42:40.626Z,9.80
2022-09-12T04:47:24.347Z,9.70
2022-09-12T04:52:08.245Z,9.70
2022-09-12T04:56:52.703Z,9.60
2022-09-12T05:01:37.739Z,9.60
2022-09-12T05:06:22.895Z,9.40
2022-09-12T05:11:07.888Z,9.30
2022-09-12T05:15:58.166Z,9.20
2022-09-12T05:20:42.962Z,9.50
2022-09-12T05:25:26.423Z,9.50
2022-09-12T05:30:11.445Z,9.60
2022-09-12T05:34:54.864Z,9.60
2022-09-12T05:39:39.716Z,9.60
2022-09-12T05:44:23.120Z,9.50
2022-09-12T05:49:08.535Z,9.50
2022-09-12T05:53:53.939Z,9.50
2022-09-12T05:58:41.565Z,9.60
2022-09-12T06:03:25.290Z,9.60
2022-09-12T06:08:08.681Z,9.50
2022-09-12T06:12:52.040Z,9.50
2022-09-12T06:17:36.874Z,9.60
2022-09-12T06:22:20.214Z,9.70
2022-09-12T06:27:03.722Z,9.80
2022-09-12T06:31:47.204Z,10.30
2022-09-12T06:36:34.377Z,11.00
2022-09-12T06:41:17.879Z,11.60
2022-09-12T06:46:01.569Z,12.30
2022-09-12T06:50:45.083Z,12.90
2022-09-12T06:55:30.221Z,13.40
2022-09-12T07:00:15.057Z,13.80
2022-09-12T07:04:58.481Z,14.30
2022-09-12T07:09:41.847Z,14.50
2022-09-12T07:14:27.266Z,15.00
2022-09-12T07:19:11.521Z,15.30
2022-09-12T07:23:57.995Z,15.70
2022-09-12T07:28:41.894Z,16.20
2022-09-12T07:33:29.393Z,16.60
2022-09-12T07:38:12.829Z,17.00
2022-09-12T07:42:56.373Z,17.30
2022-09-12T07:47:41.147Z,17.50
2022-09-12T07:52:25.952Z,17.90
2022-09-12T07:57:09.359Z,18.40
2022-09-12T08:01:52.974Z,18.50
2022-09-12T08:06:37.255Z,18.90
2022-09-12T08:11:23.199Z,19.20
2022-09-12T08:16:08.336Z,20.00
2022-09-12T08:20:58.144Z,20.30
2022-09-12T08:25:41.515Z,20.50
2022-09-12T08:30:26.351Z,21.10
2022-09-12T08:35:10.300Z,21.30
2022-09-12T08:39:54.094Z,21.40
2022-09-12T08:44:55.317Z,21.90
2022-09-12T08:49:49.101Z,22.10
2022-09-12T08:54:33.761Z,22.30
2022-09-12T08:59:17.827Z,22.70
2022-09-12T09:04:28.949Z,23.30
2022-09-12T09:09:18.815Z,23.50
2022-09-12T09:14:34.877Z,23.50
2022-09-12T09:19:22.983Z,23.90
2022-09-12T09:24:10.329Z,23.90
2022-09-12T09:29:00.675Z,24.30
2022-09-12T09:33:45.002Z,24.20
2022-09-12T09:38:39.287Z,24.30
2022-09-12T09:43:24.587Z,24.80
2022-09-12T09:48:17.541Z,25.00
2022-09-12T09:53:04.202Z,25.10
2022-09-12T09:57:48.163Z,25.50
2022-09-12T10:02:31.593Z,26.00
2022-09-12T10:08:02.165Z,27.00
2022-09-12T10:12:46.599Z,26.90
2022-09-12T10:17:34.493Z,26.90
2022-09-12T10:22:22.543Z,26.90
2022-09-12T10:27:15.267Z,26.30
2022-09-12T10:32:01.342Z,27.00
2022-09-12T10:36:44.966Z,27.50
2022-09-12T10:41:38.271Z,28.10
2022-09-12T10:46:32.592Z,28.40
2022-09-12T10:51:28.586Z,28.70
2022-09-12T10:56:28.537Z,29.60
2022-09-12T11:01:27.250Z,29.50
2022-09-12T11:06:17.671Z,29.80
2022-09-12T11:11:09.735Z,30.20
2022-09-12T11:16:12.298Z,30.30
2022-09-12T11:21:09.632Z,29.90
2022-09-12T11:26:01.253Z,29.60
2022-09-12T11:30:57.174Z,30.00
2022-09-12T11:35:53.056Z,29.70
2022-09-12T11:40:44.466Z,29.00
2022-09-12T11:45:32.799Z,29.50
2022-09-12T11:50:26.325Z,29.30
2022-09-12T11:55:19.214Z,30.20
2022-09-12T12:00:06.389Z,30.50
2022-09-12T12:05:03.289Z,30.20
2022-09-12T12:09:50.516Z,30.00
2022-09-12T12:14:43.897Z,30.30
2022-09-12T12:19:36.151Z,30.40
2022-09-12T12:24:23.014Z,30.60
2022-09-12T12:29:09.575Z,31.10
2022-09-12T12:34:30.560Z,29.60
2022-09-12T12:40:01.307Z,29.30
2022-09-12T12:44:52.772Z,31.10
2022-09-12T12:49:37.654Z,30.80
2022-09-12T12:54:34.428Z,31.80
2022-09-12T12:59:21.549Z,31.70
2022-09-12T13:04:12.609Z,32.10
2022-09-12T13:09:01.903Z,31.90
2022-09-12T13:13:51.397Z,31.60
2022-09-12T13:18:43.414Z,32.10
2022-09-12T13:23:29.197Z,32.30
2022-09-12T13:28:19.178Z,32.80
2022-09-12T13:33:18.526Z,34.10
2022-09-12T13:38:12.215Z,34.20
2022-09-12T13:43:11.157Z,32.70
2022-09-12T13:47:59.267Z,35.00
2022-09-12T13:52:49.622Z,35.50
2022-09-12T13:57:38.156Z,35.90
2022-09-12T14:02:23.962Z,34.70
2022-09-12T14:07:15.274Z,33.50
2022-09-12T14:12:00.125Z,35.30
2022-09-12T14:16:43.555Z,36.00
2022-09-12T14:21:36.813Z,36.00
2022-09-12T14:26:23.688Z,36.30
2022-09-12T14:31:09.167Z,36.20
2022-09-12T14:35:54.692Z,36.20
2022-09-12T14:40:43.724Z,35.70
2022-09-12T14:45:31.474Z,35.30
2022-09-12T14:50:18.851Z,34.10
2022-09-12T14:55:03.789Z,33.00
2022-09-12T14:59:47.265Z,32.70
2022-09-12T15:04:42.276Z,32.60
2022-09-12T15:09:25.856Z,31.10
2022-09-12T15:14:15.051Z,30.90
2022-09-12T15:18:58.559Z,31.30
2022-09-12T15:23:46.721Z,31.10
2022-09-12T15:28:32.471Z,29.40
2022-09-12T15:33:15.956Z,29.50
2022-09-12T15:37:59.337Z,29.30
2022-09-12T15:42:44.295Z,29.50
2022-09-12T15:47:27.968Z,28.20
2022-09-12T15:52:16.609Z,28.90
2022-09-12T15:57:00.024Z,28.80
2022-09-12T16:01:45.284Z,28.80
2022-09-12T16:06:32.503Z,28.30
2022-09-12T16:11:23.071Z,27.80
2022-09-12T16:16:07.880Z,27.90
2022-09-12T16:20:55.669Z,28.10
2022-09-12T16:25:39.075Z,27.60
2022-09-12T16:30:22.561Z,27.70
2022-09-12T16:35:07.204Z,27.80
2022-09-12T16:39:52.609Z,27.60
2022-09-12T16:44:36.029Z,26.90
2022-09-12T16:49:19.517Z,26.00
2022-09-12T16:54:03.375Z,25.40
2022-09-12T16:58:49.081Z,24.30
2022-09-12T17:03:33.049Z,23.40
2022-09-12T17:08:16.928Z,22.60
2022-09-12T17:13:00.447Z,22.10
2022-09-12T17:17:46.105Z,21.50
2022-09-12T17:22:29.981Z,21.00
2022-09-12T17:27:13.628Z,20.60
2022-09-12T17:31:57.471Z,20.40
2022-09-12T17:36:44.704Z,20.20
2022-09-12T17:41:31.932Z,19.70
2022-09-12T17:46:15.875Z,19.50
2022-09-12T17:50:59.906Z,19.30
2022-09-12T17:55:44.804Z,19.10
2022-09-12T18:00:48.825Z,18.70
2022-09-12T18:05:33.008Z,18.40
2022-09-12T18:10:16.937Z,18.20
2022-09-12T18:15:02.125Z,18.00
2022-09-12T18:19:49.262Z,17.90
2022-09-12T18:24:37.010Z,17.60
2022-09-12T18:29:21.310Z,17.30
2022-09-12T18:34:07.225Z,17.20
2022-09-12T18:38:50.875Z,17.10
2022-09-12T18:43:35.149Z,16.90
2022-09-12T18:48:19.058Z,16.90
2022-09-12T18:53:04.290Z,16.70
2022-09-12T18:57:48.494Z,16.70
2022-09-12T19:02:32.116Z,16.70
2022-09-12T19:07:17.467Z,16.60
2022-09-12T19:12:02.882Z,16.50
2022-09-12T19:16:46.996Z,16.60
2022-09-12T19:21:33.416Z,16.20
2022-09-12T19:26:18.805Z,16.10
2022-09-12T19:31:06.251Z,15.90
2022-09-12T19:35:50.118Z,15.70
2022-09-12T19:40:33.808Z,15.60
2022-09-12T19:45:17.427Z,15.60
2022-09-12T19:50:02.351Z,15.70
2022-09-12T19:54:46.087Z,15.70
2022-09-12T19:59:29.556Z,15.80
2022-09-12T20:04:13.034Z,15.70
2022-09-12T20:08:58.244Z,15.70
2022-09-12T20:13:41.968Z,15.60
2022-09-12T20:18:25.453Z,15.60
2022-09-12T20:23:08.893Z,15.50
2022-09-12T20:28:00.062Z,15.40
2022-09-12T20:32:44.069Z,15.20
2022-09-12T20:37:27.529Z,15.20
2022-09-12T20:42:10.960Z,15.30
2022-09-12T20:46:56.057Z,15.90
2022-09-12T20:51:40.190Z,15.90
2022-09-12T20:56:24.012Z,15.70
2022-09-12T21:01:11.850Z,15.40
2022-09-12T21:05:57.072Z,15.30
2022-09-12T21:10:42.309Z,15.00
2022-09-12T21:15:26.403Z,14.90
2022-09-12T21:20:11.522Z,14.80
2022-09-12T21:24:56.507Z,14.70
2022-09-12T21:29:39.918Z,14.60
2022-09-12T21:34:23.335Z,14.70
2022-09-12T21:39:07.031Z,14.60
2022-09-12T21:43:52.001Z,14.50
2022-09-12T21:48:35.739Z,14.30
2022-09-12T21:53:19.202Z,14.30
2022-09-12T21:58:02.631Z,14.30
2022-09-12T22:02:48.505Z,14.30
2022-09-12T22:07:32.063Z,14.20
2022-09-12T22:12:15.555Z,14.20
2022-09-12T22:16:58.964Z,14.10
2022-09-12T22:22:04.210Z,13.90
2022-09-12T22:26:47.987Z,13.80
2022-09-12T22:31:31.587Z,13.70
2022-09-12T22:36:15.047Z,13.70
2022-09-12T22:41:00.388Z,13.70
2022-09-12T22:45:43.814Z,13.80
2022-09-12T22:50:27.787Z,13.80
2022-09-12T22:55:11.583Z,13.70
2022-09-12T22:59:56.347Z,13.80
2022-09-12T23:04:40.216Z,13.80
2022-09-12T23:09:23.782Z,13.90
2022-09-12T23:14:07.423Z,13.90
2022-09-12T23:18:52.951Z,13.80
2022-09-12T23:23:36.906Z,13.50
2022-09-12T23:28:20.282Z,13.40
2022-09-12T23:33:03.755Z,13.50
2022-09-12T23:37:49.007Z,13.40
2022-09-12T23:42:32.320Z,13.50
2022-09-12T23:47:15.697Z,13.50
2022-09-12T23:51:59.090Z,13.70
2022-09-12T23:56:43.952Z,13.70
